Time;durP1;ratioP1;P1;durP2;ratioP2;P2;SDS_P1;SDS_P2;PMS_P1;PMS_P2;Temp;Humidity;BMP_temperature;BMP_pressure;BME280_temperature;BME280_humidity;BME280_pressure;Samples;Min_cycle;Max_cycle;Signal;HPM_P1;HPM_P2
2021/08/29 00:00:21;;;;;;;19.53;10.80;;;13.70;97.30;;;;;;4975867;28;20185;-83
2021/08/29 00:02:47;;;;;;;20.60;12.27;;;13.70;97.30;;;;;;4975630;28;20178;-83
2021/08/29 00:05:13;;;;;;;22.67;12.57;;;13.70;97.30;;;;;;4993129;28;20256;-83
2021/08/29 00:07:38;;;;;;;23.73;13.90;;;13.70;97.30;;;;;;4993408;28;20706;-83
2021/08/29 00:10:05;;;;;;;25.33;14.30;;;13.70;97.30;;;;;;4975308;28;20292;-83
2021/08/29 00:12:31;;;;;;;27.60;14.77;;;13.80;97.30;;;;;;4975132;28;20251;-83
2021/08/29 00:14:57;;;;;;;24.10;12.80;;;13.80;97.30;;;;;;4976212;28;20911;-83
2021/08/29 00:17:22;;;;;;;22.10;12.77;;;13.80;97.30;;;;;;4978812;28;20333;-83
2021/08/29 00:19:48;;;;;;;23.07;13.87;;;13.90;97.30;;;;;;4979058;28;20204;-82
2021/08/29 00:22:13;;;;;;;23.87;13.10;;;13.90;97.30;;;;;;4978712;28;20185;-84
2021/08/29 00:24:39;;;;;;;22.83;13.30;;;13.90;97.30;;;;;;4979492;28;20200;-83
2021/08/29 00:27:05;;;;;;;25.13;13.00;;;13.90;97.30;;;;;;4983015;28;20178;-83
2021/08/29 00:29:30;;;;;;;23.43;12.50;;;13.90;97.30;;;;;;4982408;28;20248;-83
2021/08/29 00:31:56;;;;;;;24.57;11.77;;;13.90;97.30;;;;;;4981909;28;20264;-83
2021/08/29 00:34:21;;;;;;;23.87;12.27;;;14.00;97.30;;;;;;4982214;28;20320;-83
2021/08/29 00:36:47;;;;;;;19.73;11.20;;;14.00;97.30;;;;;;4981993;28;20418;-83
2021/08/29 00:39:13;;;;;;;21.90;11.90;;;14.00;97.30;;;;;;4997715;28;20194;-83
2021/08/29 00:41:41;;;;;;;21.80;10.60;;;14.00;97.30;;;;;;4979895;28;20174;-83
2021/08/29 00:44:07;;;;;;;20.07;11.07;;;14.00;97.30;;;;;;4981065;28;20181;-83
2021/08/29 00:46:34;;;;;;;23.37;11.57;;;14.00;97.30;;;;;;4981002;28;20417;-83
2021/08/29 00:48:59;;;;;;;23.33;11.53;;;14.00;97.30;;;;;;4982180;28;20202;-83
2021/08/29 00:51:25;;;;;;;19.43;11.80;;;14.00;97.30;;;;;;4979936;28;20496;-83
2021/08/29 00:53:55;;;;;;;21.60;11.53;;;14.00;97.30;;;;;;4979149;28;20178;-84
2021/08/29 00:56:21;;;;;;;22.53;11.20;;;14.00;97.30;;;;;;4979108;28;20284;-83
2021/08/29 00:58:49;;;;;;;24.27;12.50;;;14.00;97.30;;;;;;4996856;28;20437;-83
2021/08/29 01:01:18;;;;;;;26.60;12.70;;;14.00;97.30;;;;;;4978841;28;20452;-83
2021/08/29 01:03:46;;;;;;;22.90;13.03;;;14.00;97.30;;;;;;4979229;28;20923;-83
2021/08/29 01:06:25;;;;;;;24.87;13.13;;;14.00;97.30;;;;;;4978789;28;21046;-83
2021/08/29 01:09:01;;;;;;;30.77;13.03;;;14.00;97.30;;;;;;4979143;28;20441;-83
2021/08/29 01:11:27;;;;;;;23.80;12.63;;;14.10;97.30;;;;;;4979115;28;20417;-83
2021/08/29 01:14:03;;;;;;;27.47;13.53;;;14.10;97.30;;;;;;4980006;28;20428;-83
2021/08/29 01:16:35;;;;;;;22.57;12.43;;;14.10;97.30;;;;;;4980069;28;20819;-83
2021/08/29 01:19:17;;;;;;;28.53;12.70;;;14.10;97.30;;;;;;4980335;28;21169;-83
2021/08/29 01:21:44;;;;;;;23.50;11.47;;;14.10;97.30;;;;;;4978925;28;20417;-84
2021/08/29 01:24:14;;;;;;;21.10;11.33;;;14.20;97.30;;;;;;4978634;28;20409;-83
2021/08/29 01:26:45;;;;;;;20.20;11.33;;;14.20;97.30;;;;;;4978318;28;20516;-83
2021/08/29 01:29:13;;;;;;;23.37;12.73;;;14.20;97.30;;;;;;4978597;28;20503;-83
2021/08/29 01:31:44;;;;;;;20.50;11.10;;;14.20;97.30;;;;;;4987860;23;20488;-86
2021/08/29 01:34:13;;;;;;;23.03;11.37;;;14.20;97.30;;;;;;4975844;28;20406;-87
2021/08/29 01:36:41;;;;;;;23.17;12.30;;;14.30;97.30;;;;;;4976280;28;20503;-86
2021/08/29 01:39:07;;;;;;;23.20;12.30;;;14.30;97.30;;;;;;4975709;28;20446;-88
2021/08/29 01:41:36;;;;;;;22.20;11.97;;;14.30;97.30;;;;;;4976146;28;20880;-86
2021/08/29 01:44:03;;;;;;;25.00;11.77;;;14.30;97.30;;;;;;4984291;28;20414;-87
2021/08/29 01:46:29;;;;;;;27.60;13.13;;;14.30;97.30;;;;;;4995989;28;20809;-88
2021/08/29 01:48:56;;;;;;;23.83;11.50;;;14.30;97.30;;;;;;4993082;28;20420;-87
2021/08/29 01:51:21;;;;;;;27.73;12.23;;;14.40;97.30;;;;;;4995126;28;21104;-87
2021/08/29 01:53:48;;;;;;;20.97;10.63;;;14.40;97.30;;;;;;4983282;28;20519;-86
2021/08/29 01:56:14;;;;;;;21.37;11.10;;;14.40;97.30;;;;;;4979924;28;20226;-87
2021/08/29 01:58:39;;;;;;;24.20;11.67;;;14.40;97.30;;;;;;4977010;28;20493;-86
2021/08/29 02:01:10;;;;;;;23.00;11.20;;;14.40;97.30;;;;;;4990855;28;20261;-86
2021/08/29 02:03:38;;;;;;;25.07;11.23;;;14.40;97.30;;;;;;4982055;28;20174;-87
2021/08/29 02:06:11;;;;;;;25.47;12.90;;;14.40;97.30;;;;;;4994161;28;20417;-86
2021/08/29 02:08:41;;;;;;;23.10;11.47;;;14.50;97.30;;;;;;4982073;28;20419;-87
2021/08/29 02:11:08;;;;;;;24.57;11.73;;;14.50;97.30;;;;;;4996225;28;20444;-87
2021/08/29 02:13:35;;;;;;;25.57;12.70;;;14.50;97.30;;;;;;4991414;28;20998;-87
2021/08/29 02:16:12;;;;;;;23.63;12.10;;;14.60;97.30;;;;;;4996032;28;20461;-87
2021/08/29 02:18:41;;;;;;;27.67;12.43;;;14.60;97.30;;;;;;4976843;28;20428;-87
2021/08/29 02:21:06;;;;;;;25.17;11.97;;;14.60;97.30;;;;;;4985978;28;20488;-86
2021/08/29 02:23:32;;;;;;;28.80;12.20;;;14.60;97.30;;;;;;4990596;28;20413;-88
2021/08/29 02:25:58;;;;;;;21.77;11.47;;;14.60;97.30;;;;;;4989950;28;20181;-86
2021/08/29 02:28:24;;;;;;;32.77;11.30;;;14.60;97.30;;;;;;4987405;28;20178;-86
2021/08/29 02:30:50;;;;;;;27.97;11.87;;;14.60;97.30;;;;;;4977726;28;20230;-87
2021/08/29 02:33:16;;;;;;;24.67;11.83;;;14.60;97.30;;;;;;4982881;28;20433;-87
2021/08/29 02:35:43;;;;;;;25.63;11.80;;;14.60;97.30;;;;;;4974397;28;20425;-87
2021/08/29 02:38:09;;;;;;;22.87;11.13;;;14.60;97.30;;;;;;4988855;28;20417;-87
2021/08/29 02:40:38;;;;;;;24.43;12.07;;;14.60;97.30;;;;;;4986438;28;20438;-87
2021/08/29 02:43:04;;;;;;;26.03;11.73;;;14.60;97.30;;;;;;4996002;28;20707;-87
2021/08/29 02:45:30;;;;;;;28.77;13.20;;;14.60;97.30;;;;;;4991328;28;20547;-87
2021/08/29 02:47:56;;;;;;;30.70;12.97;;;14.60;97.30;;;;;;4973609;28;20230;-87
2021/08/29 02:50:23;;;;;;;30.03;13.63;;;14.60;97.30;;;;;;4973561;28;20481;-86
2021/08/29 02:52:49;;;;;;;29.97;13.93;;;14.70;97.30;;;;;;4986284;28;20205;-87
2021/08/29 02:55:20;;;;;;;28.57;13.23;;;14.70;97.30;;;;;;4976903;28;20432;-86
2021/08/29 02:57:51;;;;;;;32.63;13.47;;;14.70;97.30;;;;;;4988875;28;20552;-86
2021/08/29 03:00:17;;;;;;;25.80;12.93;;;14.70;97.30;;;;;;4993029;28;20421;-86
2021/08/29 03:02:43;;;;;;;28.70;13.50;;;14.80;97.30;;;;;;4984170;28;20433;-85
2021/08/29 03:05:09;;;;;;;29.97;12.80;;;14.80;97.30;;;;;;4985106;28;20414;-86
2021/08/29 03:07:35;;;;;;;28.30;14.33;;;14.80;97.30;;;;;;4988578;28;20232;-86
2021/08/29 03:10:00;;;;;;;27.57;12.90;;;14.80;97.30;;;;;;4984848;28;20426;-85
2021/08/29 03:12:27;;;;;;;27.53;11.63;;;14.80;97.30;;;;;;4990583;28;20219;-85
2021/08/29 03:14:53;;;;;;;28.10;12.60;;;14.80;97.30;;;;;;4977410;28;20182;-85
2021/08/29 03:17:21;;;;;;;27.47;13.53;;;14.80;97.30;;;;;;4985570;28;20460;-86
2021/08/29 03:19:49;;;;;;;20.33;10.90;;;14.80;97.30;;;;;;4992057;28;20435;-85
2021/08/29 03:22:15;;;;;;;26.83;12.80;;;14.80;97.30;;;;;;4981865;28;20441;-86
2021/08/29 03:24:41;;;;;;;30.00;13.03;;;14.80;97.30;;;;;;4977683;28;20418;-87
2021/08/29 03:27:07;;;;;;;23.10;10.80;;;14.80;97.30;;;;;;4986908;28;20334;-86
2021/08/29 03:29:32;;;;;;;25.13;11.20;;;14.80;97.30;;;;;;4993268;28;20413;-87
2021/08/29 03:31:59;;;;;;;22.30;10.70;;;14.80;97.30;;;;;;4976516;28;20493;-86
2021/08/29 03:34:25;;;;;;;29.20;12.47;;;14.80;97.30;;;;;;4987431;28;20216;-86
2021/08/29 03:36:50;;;;;;;22.93;11.87;;;14.90;97.30;;;;;;4988283;28;20483;-86
2021/08/29 03:39:16;;;;;;;24.50;11.63;;;14.90;97.30;;;;;;4984813;28;20941;-87
2021/08/29 03:41:44;;;;;;;28.20;12.43;;;14.90;97.30;;;;;;4982023;28;20195;-85
2021/08/29 03:44:12;;;;;;;31.00;12.37;;;14.90;97.30;;;;;;4978163;28;20418;-86
2021/08/29 03:46:39;;;;;;;24.47;11.77;;;14.90;97.30;;;;;;4974353;28;20426;-86
2021/08/29 03:49:05;;;;;;;30.17;12.30;;;14.90;97.30;;;;;;4989037;28;20417;-85
2021/08/29 03:51:33;;;;;;;27.10;12.20;;;14.90;97.30;;;;;;4992221;28;20508;-86
2021/08/29 03:54:00;;;;;;;26.73;11.90;;;14.90;97.30;;;;;;4989694;28;20500;-86
2021/08/29 03:56:27;;;;;;;23.03;11.77;;;14.90;97.30;;;;;;4983591;28;20472;-85
2021/08/29 03:58:53;;;;;;;34.17;14.33;;;14.90;97.30;;;;;;4987999;28;20431;-85
2021/08/29 04:01:18;;;;;;;27.83;12.57;;;14.90;97.30;;;;;;4975887;28;20528;-85
2021/08/29 04:03:44;;;;;;;29.90;12.83;;;14.90;97.30;;;;;;4977793;28;20183;-85
2021/08/29 04:06:12;;;;;;;27.17;11.20;;;14.90;97.30;;;;;;4992262;28;20190;-85
2021/08/29 04:08:44;;;;;;;29.73;13.50;;;14.90;97.30;;;;;;4990873;28;20555;-85
2021/08/29 04:11:10;;;;;;;27.20;12.43;;;14.90;97.30;;;;;;4977984;28;20496;-86
2021/08/29 04:13:37;;;;;;;23.63;10.97;;;14.90;97.30;;;;;;4987518;28;20445;-85
2021/08/29 04:16:04;;;;;;;27.10;12.27;;;14.90;97.30;;;;;;4997528;28;20217;-85
2021/08/29 04:18:35;;;;;;;24.83;11.77;;;14.90;97.30;;;;;;4994221;28;20413;-85
2021/08/29 04:21:01;;;;;;;30.30;11.50;;;14.90;97.30;;;;;;4977190;28;20445;-85
2021/08/29 04:23:26;;;;;;;29.00;12.90;;;14.90;97.30;;;;;;4982298;28;20425;-87
2021/08/29 04:25:52;;;;;;;27.47;11.70;;;14.90;97.30;;;;;;4989440;28;20640;-86
2021/08/29 04:28:18;;;;;;;28.53;12.90;;;14.90;97.30;;;;;;4991977;28;20535;-85
2021/08/29 04:30:45;;;;;;;23.60;11.33;;;14.90;97.30;;;;;;4975933;28;20237;-86
2021/08/29 04:33:10;;;;;;;27.40;12.27;;;14.90;97.30;;;;;;4977099;28;20547;-85
2021/08/29 04:35:36;;;;;;;28.70;11.27;;;14.90;97.30;;;;;;4984410;28;20429;-86
2021/08/29 04:38:02;;;;;;;27.30;12.37;;;14.80;97.30;;;;;;4984795;28;20178;-85
2021/08/29 04:40:29;;;;;;;22.80;11.53;;;14.80;97.30;;;;;;4992453;28;20209;-85
2021/08/29 04:42:55;;;;;;;24.70;11.00;;;14.80;97.30;;;;;;4997698;28;20177;-85
2021/08/29 04:45:21;;;;;;;23.87;11.70;;;14.80;97.30;;;;;;4997300;28;20442;-84
2021/08/29 04:47:46;;;;;;;20.90;10.07;;;14.80;97.30;;;;;;4996823;28;20179;-86
2021/08/29 04:50:11;;;;;;;22.97;10.53;;;14.80;97.30;;;;;;4983306;28;20253;-86
2021/08/29 04:52:37;;;;;;;27.83;11.47;;;14.80;97.30;;;;;;4976427;28;20194;-86
2021/08/29 04:55:03;;;;;;;31.50;12.83;;;14.80;97.30;;;;;;4976351;28;20265;-85
2021/08/29 04:57:28;;;;;;;24.23;10.77;;;14.90;97.30;;;;;;4976179;28;20222;-85
2021/08/29 04:59:54;;;;;;;27.40;11.50;;;15.00;97.30;;;;;;4975564;28;20937;-85
2021/08/29 05:02:20;;;;;;;21.70;11.10;;;15.10;97.30;;;;;;4975484;28;20191;-85
2021/08/29 05:04:45;;;;;;;22.43;9.47;;;15.10;97.30;;;;;;4975867;28;20204;-86
2021/08/29 05:07:11;;;;;;;22.57;10.60;;;15.20;97.30;;;;;;4977445;28;20472;-85
2021/08/29 05:09:36;;;;;;;16.33;8.40;;;15.30;97.30;;;;;;4976117;28;20325;-85
2021/08/29 05:12:02;;;;;;;23.20;11.20;;;15.40;97.30;;;;;;4976130;28;20191;-84
2021/08/29 05:14:27;;;;;;;19.00;10.63;;;15.50;97.30;;;;;;4976663;28;20757;-85
2021/08/29 05:16:53;;;;;;;15.20;8.13;;;15.60;97.30;;;;;;4976877;28;20193;-85
2021/08/29 05:19:18;;;;;;;20.80;9.40;;;15.60;97.30;;;;;;4977234;28;20175;-85
2021/08/29 05:21:44;;;;;;;21.00;9.27;;;15.70;97.30;;;;;;4976752;28;20221;-86
2021/08/29 05:24:09;;;;;;;14.33;8.10;;;15.80;97.30;;;;;;4976019;28;20180;-85
2021/08/29 05:26:35;;;;;;;25.57;15.87;;;15.80;97.30;;;;;;4976613;28;20175;-85
2021/08/29 05:29:01;;;;;;;28.20;17.33;;;15.80;97.30;;;;;;4976827;28;20171;-85
2021/08/29 05:31:26;;;;;;;38.93;22.53;;;15.80;97.30;;;;;;4977219;28;20576;-85
2021/08/29 05:33:52;;;;;;;45.93;27.33;;;15.80;97.30;;;;;;4958696;28;20425;-86
2021/08/29 05:36:17;;;;;;;36.23;20.70;;;15.80;97.30;;;;;;4975918;28;20344;-86
2021/08/29 05:38:43;;;;;;;20.20;11.60;;;15.80;97.30;;;;;;4958983;28;20181;-85
2021/08/29 05:41:08;;;;;;;17.23;8.53;;;15.90;97.30;;;;;;4959124;28;20198;-84
2021/08/29 05:43:34;;;;;;;16.70;7.93;;;16.00;97.30;;;;;;4959041;28;20283;-85
2021/08/29 05:45:59;;;;;;;15.03;8.87;;;16.20;97.30;;;;;;4959192;28;20178;-85
2021/08/29 05:48:25;;;;;;;17.20;9.30;;;16.30;97.30;;;;;;4959190;28;20273;-85
2021/08/29 05:50:50;;;;;;;14.17;7.80;;;16.40;97.30;;;;;;4959972;28;20203;-84
2021/08/29 05:53:16;;;;;;;13.37;7.50;;;16.50;97.30;;;;;;4960215;28;20175;-86
2021/08/29 05:55:42;;;;;;;11.73;5.90;;;16.60;97.30;;;;;;4959457;28;20277;-86
2021/08/29 05:58:08;;;;;;;10.50;6.17;;;16.70;97.30;;;;;;4960455;28;20956;-85
2021/08/29 06:00:33;;;;;;;13.10;6.70;;;16.60;97.30;;;;;;4977632;28;20193;-86
2021/08/29 06:02:59;;;;;;;12.90;7.30;;;16.60;97.30;;;;;;4959750;28;20175;-85
2021/08/29 06:05:24;;;;;;;12.00;6.47;;;16.50;97.30;;;;;;4959908;28;20197;-85
2021/08/29 06:07:50;;;;;;;16.17;8.90;;;16.50;97.30;;;;;;4959908;28;20294;-86
2021/08/29 06:10:15;;;;;;;13.10;9.67;;;16.40;97.30;;;;;;4959587;28;20182;-84
2021/08/29 06:12:41;;;;;;;11.60;7.30;;;16.30;97.30;;;;;;4959717;28;20195;-84
2021/08/29 06:15:07;;;;;;;11.37;6.53;;;16.30;97.30;;;;;;4958796;28;20221;-86
2021/08/29 06:17:33;;;;;;;12.57;7.03;;;16.30;97.30;;;;;;4938962;29;20258;-86
2021/08/29 06:19:58;;;;;;;10.33;6.47;;;16.20;97.30;;;;;;4940881;28;20419;-85
2021/08/29 06:22:23;;;;;;;11.53;6.30;;;16.20;97.30;;;;;;4958000;28;20629;-85
2021/08/29 06:24:49;;;;;;;13.00;7.97;;;16.20;97.30;;;;;;4957886;28;20179;-85
2021/08/29 06:27:14;;;;;;;11.23;6.00;;;16.30;97.30;;;;;;4958745;28;20638;-86
2021/08/29 06:29:40;;;;;;;11.70;6.77;;;16.30;97.30;;;;;;4958647;28;20189;-86
2021/08/29 06:32:06;;;;;;;9.77;5.63;;;16.40;97.30;;;;;;4970144;28;20229;-87
2021/08/29 06:34:32;;;;;;;11.10;6.03;;;16.60;97.30;;;;;;4976413;28;20214;-85
2021/08/29 06:36:57;;;;;;;13.23;6.63;;;16.80;97.30;;;;;;4975319;28;20457;-86
2021/08/29 06:39:23;;;;;;;11.33;6.23;;;17.00;97.30;;;;;;4975356;28;20513;-86
2021/08/29 06:41:48;;;;;;;8.87;5.87;;;17.20;97.30;;;;;;4975131;28;20210;-87
2021/08/29 06:44:13;;;;;;;6.60;4.30;;;17.40;97.30;;;;;;4975676;28;20206;-85
2021/08/29 06:46:39;;;;;;;8.00;4.40;;;17.40;97.30;;;;;;4975335;28;20186;-85
2021/08/29 06:49:04;;;;;;;5.63;3.60;;;17.20;97.30;;;;;;4974954;28;20179;-87
2021/08/29 06:51:30;;;;;;;6.03;3.80;;;17.00;97.30;;;;;;4974809;28;20210;-86
2021/08/29 06:54:14;;;;;;;6.73;3.67;;;16.90;97.30;;;;;;4976242;28;20185;-86
2021/08/29 06:57:01;;;;;;;7.33;3.60;;;16.80;97.30;;;;;;4974371;28;20200;-85
2021/08/29 06:59:27;;;;;;;4.87;3.30;;;16.80;97.30;;;;;;4974747;28;20425;-85
2021/08/29 07:01:52;;;;;;;4.97;3.47;;;16.60;97.30;;;;;;4974258;28;20463;-85
2021/08/29 07:04:18;;;;;;;4.33;3.40;;;16.60;97.30;;;;;;4974473;28;20542;-86
2021/08/29 07:06:43;;;;;;;4.50;3.00;;;16.50;97.30;;;;;;4974381;28;20240;-86
2021/08/29 07:09:09;;;;;;;6.70;3.73;;;16.50;97.30;;;;;;4973770;28;20668;-86
2021/08/29 07:11:34;;;;;;;5.80;4.23;;;16.50;97.30;;;;;;4974820;28;20206;-86
2021/08/29 07:14:00;;;;;;;7.27;4.27;;;16.50;97.30;;;;;;4973739;28;20645;-86
2021/08/29 07:16:25;;;;;;;6.20;3.77;;;16.60;97.30;;;;;;4973534;28;20198;-86
2021/08/29 07:18:51;;;;;;;6.00;3.57;;;16.70;97.30;;;;;;4975066;28;20664;-86
2021/08/29 07:21:17;;;;;;;4.50;3.10;;;16.70;97.30;;;;;;4974172;28;20248;-86
2021/08/29 07:23:42;;;;;;;5.17;3.50;;;16.70;97.30;;;;;;4975123;28;20646;-85
2021/08/29 07:26:13;;;;;;;6.10;3.20;;;16.70;97.30;;;;;;4974531;28;20564;-86
2021/08/29 07:28:39;;;;;;;5.80;3.67;;;16.80;97.30;;;;;;4976126;28;20163;-86
2021/08/29 07:31:05;;;;;;;5.07;3.57;;;16.80;97.30;;;;;;4992569;23;20474;-84
2021/08/29 07:33:30;;;;;;;6.10;3.90;;;16.70;97.30;;;;;;4992548;28;20451;-85
2021/08/29 07:35:56;;;;;;;5.40;3.87;;;16.70;97.30;;;;;;4995350;28;20259;-84
2021/08/29 07:38:21;;;;;;;5.73;3.80;;;16.60;97.30;;;;;;4995928;28;20176;-85
2021/08/29 07:40:47;;;;;;;5.30;4.07;;;16.50;97.30;;;;;;5012990;28;20236;-85
2021/08/29 07:43:12;;;;;;;5.93;4.10;;;16.30;97.30;;;;;;5013360;28;20173;-85
2021/08/29 07:45:38;;;;;;;6.13;3.70;;;16.30;97.30;;;;;;4995702;28;20252;-85
2021/08/29 07:48:04;;;;;;;6.77;3.87;;;16.30;97.30;;;;;;4996956;28;20213;-85
2021/08/29 07:50:29;;;;;;;6.50;3.93;;;16.30;97.30;;;;;;4975739;28;20182;-85
2021/08/29 07:52:55;;;;;;;6.80;3.80;;;16.40;97.30;;;;;;4975728;28;20453;-85
2021/08/29 07:55:20;;;;;;;7.40;4.57;;;16.40;97.30;;;;;;4976436;28;20189;-85
2021/08/29 07:57:46;;;;;;;8.30;4.97;;;16.30;97.30;;;;;;4975881;28;20220;-83
2021/08/29 08:00:12;;;;;;;7.57;4.83;;;16.40;97.30;;;;;;4975980;28;20182;-85
2021/08/29 08:02:38;;;;;;;7.17;4.30;;;16.50;97.30;;;;;;4976028;28;20441;-85
2021/08/29 08:05:04;;;;;;;7.03;4.07;;;16.60;97.30;;;;;;4993857;28;20433;-85
2021/08/29 08:07:29;;;;;;;8.37;4.37;;;16.80;97.30;;;;;;5010312;28;20192;-85
2021/08/29 08:09:55;;;;;;;8.93;4.30;;;16.90;97.30;;;;;;4981564;28;20193;-84
2021/08/29 08:12:20;;;;;;;6.30;4.60;;;17.00;97.30;;;;;;4978069;28;20206;-83
2021/08/29 08:14:46;;;;;;;5.60;4.13;;;17.20;97.30;;;;;;4977554;28;20257;-85
2021/08/29 08:17:11;;;;;;;7.50;4.60;;;17.30;97.30;;;;;;4985072;28;20292;-86
2021/08/29 08:19:37;;;;;;;6.40;4.20;;;17.40;97.30;;;;;;4996263;28;20173;-85
2021/08/29 08:22:02;;;;;;;7.03;4.20;;;17.40;97.30;;;;;;4995514;28;20221;-85
2021/08/29 08:24:29;;;;;;;7.03;4.37;;;17.50;97.30;;;;;;4986008;28;20658;-85
2021/08/29 08:26:54;;;;;;;5.50;3.73;;;17.50;97.30;;;;;;4956621;28;20426;-85
2021/08/29 08:29:20;;;;;;;6.23;4.57;;;17.60;97.30;;;;;;4956835;28;20197;-83
2021/08/29 08:31:45;;;;;;;6.37;3.80;;;17.70;97.30;;;;;;4956150;28;20222;-85
2021/08/29 08:34:11;;;;;;;6.73;4.57;;;17.80;97.30;;;;;;4958724;28;20182;-86
2021/08/29 08:36:36;;;;;;;8.10;5.07;;;17.80;97.30;;;;;;4977972;28;20205;-83
2021/08/29 08:39:02;;;;;;;7.43;5.03;;;17.80;97.30;;;;;;4994703;28;20173;-84
2021/08/29 08:41:28;;;;;;;8.20;5.53;;;17.80;97.30;;;;;;4994902;28;20668;-84
2021/08/29 08:43:54;;;;;;;8.63;5.70;;;17.70;97.30;;;;;;4999865;28;20582;-84
2021/08/29 08:46:20;;;;;;;8.73;6.03;;;17.70;97.30;;;;;;4994042;28;20187;-84
2021/08/29 08:48:49;;;;;;;13.77;5.83;;;17.70;97.30;;;;;;4979200;28;20332;-84
2021/08/29 08:51:23;;;;;;;11.13;6.33;;;17.60;97.30;;;;;;4979326;28;20200;-84
2021/08/29 08:53:54;;;;;;;7.80;4.77;;;17.60;97.30;;;;;;4990357;28;20424;-84
2021/08/29 08:56:20;;;;;;;9.43;5.27;;;17.60;97.30;;;;;;4999095;28;20451;-84
2021/08/29 08:58:47;;;;;;;7.77;4.97;;;17.50;97.30;;;;;;4999465;28;20412;-84
2021/08/29 09:01:13;;;;;;;6.20;4.17;;;17.40;97.30;;;;;;4998874;28;20444;-84
2021/08/29 09:03:40;;;;;;;6.70;4.40;;;17.40;97.30;;;;;;5017468;28;20865;-84
2021/08/29 09:06:07;;;;;;;6.20;4.40;;;17.40;97.30;;;;;;5017264;28;20471;-83
2021/08/29 09:08:37;;;;;;;5.67;4.00;;;17.30;97.30;;;;;;4996986;28;20412;-84
2021/08/29 09:11:03;;;;;;;7.00;5.10;;;17.20;97.30;;;;;;4999249;28;20439;-84
2021/08/29 09:13:47;;;;;;;8.70;5.43;;;17.20;97.30;;;;;;4998310;28;20519;-83
2021/08/29 09:16:13;;;;;;;6.47;4.13;;;17.00;97.30;;;;;;4997912;28;20498;-84
2021/08/29 09:18:53;;;;;;;7.27;4.97;;;16.90;97.30;;;;;;4979467;28;20520;-84
2021/08/29 09:21:20;;;;;;;9.63;5.80;;;16.90;97.30;;;;;;4980502;28;20443;-84
2021/08/29 09:23:47;;;;;;;7.73;5.70;;;16.80;97.30;;;;;;4978541;28;20421;-84
2021/08/29 09:26:14;;;;;;;10.40;5.30;;;16.80;97.30;;;;;;4979955;28;20468;-84
2021/08/29 09:28:40;;;;;;;8.97;5.13;;;16.70;97.30;;;;;;4980903;28;20924;-84
2021/08/29 09:31:06;;;;;;;8.50;5.87;;;16.70;97.30;;;;;;4980480;28;20437;-84
2021/08/29 09:33:32;;;;;;;8.50;6.03;;;16.70;97.30;;;;;;4981009;28;20181;-84
2021/08/29 09:35:58;;;;;;;13.90;6.27;;;16.60;97.30;;;;;;4997874;28;20189;-84
2021/08/29 09:38:23;;;;;;;10.53;6.10;;;16.60;97.30;;;;;;4980842;28;20479;-84
2021/08/29 09:40:49;;;;;;;10.73;6.93;;;16.50;97.30;;;;;;5001978;28;20651;-84
2021/08/29 09:43:15;;;;;;;12.53;7.60;;;16.50;97.30;;;;;;5015404;28;20739;-83
2021/08/29 09:45:43;;;;;;;13.13;7.97;;;16.50;97.30;;;;;;4979657;28;20425;-83
2021/08/29 09:48:13;;;;;;;12.93;8.13;;;16.50;97.30;;;;;;4980126;28;20189;-84
2021/08/29 09:50:41;;;;;;;11.83;7.43;;;16.50;97.30;;;;;;4979898;28;20511;-84
2021/08/29 09:53:06;;;;;;;11.30;7.20;;;16.50;97.30;;;;;;4979813;28;20435;-84
2021/08/29 09:55:37;;;;;;;9.40;6.23;;;16.50;97.30;;;;;;4988020;28;20930;-83
2021/08/29 09:58:27;;;;;;;10.63;6.93;;;16.40;97.30;;;;;;4998036;28;20204;-84
2021/08/29 10:01:16;;;;;;;10.30;6.57;;;16.30;97.30;;;;;;4982782;28;20425;-83
2021/08/29 10:04:02;;;;;;;12.03;6.60;;;16.20;97.30;;;;;;4977870;28;20425;-83
2021/08/29 10:06:30;;;;;;;8.73;5.93;;;16.20;97.30;;;;;;4977152;28;20468;-83
2021/08/29 10:09:00;;;;;;;13.40;7.40;;;16.10;97.30;;;;;;4982732;28;20457;-84
2021/08/29 10:11:29;;;;;;;11.60;7.53;;;16.10;97.30;;;;;;4995491;28;20671;-84
2021/08/29 10:13:56;;;;;;;11.60;7.53;;;16.10;97.30;;;;;;4988942;28;20958;-84
2021/08/29 10:16:24;;;;;;;14.73;8.37;;;16.10;97.30;;;;;;4994859;28;20555;-84
2021/08/29 10:18:52;;;;;;;14.87;8.23;;;16.00;97.30;;;;;;4978151;28;20428;-84
2021/08/29 10:21:22;;;;;;;14.30;8.00;;;16.00;97.30;;;;;;4977654;28;20434;-84
2021/08/29 10:23:50;;;;;;;12.33;7.77;;;16.00;97.30;;;;;;4989656;28;20428;-84
2021/08/29 10:26:17;;;;;;;15.00;9.20;;;16.00;97.30;;;;;;4997108;28;20563;-84
2021/08/29 10:28:49;;;;;;;16.53;8.40;;;16.00;97.30;;;;;;4996776;28;20455;-84
2021/08/29 10:31:18;;;;;;;13.63;8.73;;;16.00;97.30;;;;;;5015159;28;20542;-84
2021/08/29 10:33:48;;;;;;;16.70;8.73;;;16.10;97.30;;;;;;4998475;28;20420;-83
2021/08/29 10:36:21;;;;;;;15.20;8.50;;;16.10;97.30;;;;;;4982466;28;20539;-84
2021/08/29 10:38:49;;;;;;;15.93;9.00;;;16.10;97.30;;;;;;4987517;28;20527;-84
2021/08/29 10:41:20;;;;;;;14.27;8.60;;;16.10;97.30;;;;;;4977727;28;20452;-84
2021/08/29 10:43:50;;;;;;;14.57;9.33;;;16.10;97.30;;;;;;4977413;28;20951;-84
2021/08/29 10:46:16;;;;;;;11.60;8.10;;;16.10;97.30;;;;;;4977028;28;20428;-84
2021/08/29 10:48:45;;;;;;;16.40;9.47;;;16.10;97.30;;;;;;4976935;28;20433;-84
2021/08/29 10:51:13;;;;;;;17.20;9.33;;;16.10;97.30;;;;;;4993917;28;20427;-84
2021/08/29 10:53:48;;;;;;;17.30;9.40;;;16.20;97.30;;;;;;4996000;28;20416;-84
2021/08/29 10:56:17;;;;;;;16.10;9.30;;;16.20;97.30;;;;;;4995974;28;20452;-84
2021/08/29 10:59:05;;;;;;;15.50;8.30;;;16.30;97.30;;;;;;4996187;28;20416;-83
2021/08/29 11:01:37;;;;;;;16.23;9.27;;;16.30;97.30;;;;;;4988267;28;20437;-83
2021/08/29 11:04:20;;;;;;;17.87;9.80;;;16.50;97.30;;;;;;4976890;28;21063;-83
2021/08/29 11:06:47;;;;;;;14.80;9.20;;;16.60;97.30;;;;;;4976745;28;20421;-84
2021/08/29 11:09:31;;;;;;;11.30;7.23;;;16.60;97.30;;;;;;4976511;28;20774;-84
2021/08/29 11:11:57;;;;;;;11.10;7.20;;;16.70;97.30;;;;;;4977425;28;20870;-84
2021/08/29 11:14:49;;;;;;;11.23;7.20;;;16.70;97.30;;;;;;4977835;28;20456;-84
2021/08/29 11:17:19;;;;;;;12.10;7.70;;;16.80;97.30;;;;;;4995607;28;20185;-84
2021/08/29 11:19:47;;;;;;;12.10;7.33;;;16.90;97.30;;;;;;4995744;28;20406;-84
2021/08/29 11:22:15;;;;;;;12.10;7.20;;;16.90;97.30;;;;;;4977903;28;20433;-84
2021/08/29 11:25:17;;;;;;;12.60;8.30;;;17.00;97.30;;;;;;4976955;28;20487;-84
2021/08/29 11:27:44;;;;;;;15.63;9.17;;;17.00;97.30;;;;;;4977267;28;20857;-83
2021/08/29 11:30:37;;;;;;;10.83;7.30;;;17.00;97.30;;;;;;4976959;28;20424;-83
2021/08/29 11:33:05;;;;;;;10.43;6.57;;;17.00;97.30;;;;;;4996299;28;20499;-83
2021/08/29 11:35:45;;;;;;;12.27;7.33;;;16.90;97.30;;;;;;4996441;28;20439;-84
2021/08/29 11:38:32;;;;;;;10.10;6.37;;;17.00;97.30;;;;;;5012859;28;20539;-83
2021/08/29 11:41:10;;;;;;;9.80;6.00;;;16.80;97.30;;;;;;4993304;28;20503;-84
2021/08/29 11:43:49;;;;;;;12.40;6.70;;;16.80;97.30;;;;;;4975725;28;20955;-83
2021/08/29 11:46:18;;;;;;;7.93;5.87;;;16.80;97.30;;;;;;4975774;28;20451;-83
2021/08/29 11:48:58;;;;;;;6.93;5.30;;;16.80;97.30;;;;;;4976352;28;20448;-82
2021/08/29 11:51:26;;;;;;;10.40;6.57;;;16.90;97.30;;;;;;4976760;28;20449;-83
2021/08/29 11:53:52;;;;;;;10.30;6.57;;;16.90;97.30;;;;;;4976918;28;20425;-83
2021/08/29 11:56:18;;;;;;;10.57;7.00;;;17.00;97.30;;;;;;4994489;28;20934;-84
2021/08/29 11:58:45;;;;;;;9.33;6.40;;;17.00;97.30;;;;;;4996325;28;20177;-84
2021/08/29 12:01:11;;;;;;;12.27;6.70;;;17.10;97.30;;;;;;4996151;28;20506;-83
2021/08/29 12:03:37;;;;;;;9.60;5.90;;;17.20;97.30;;;;;;4986466;28;20935;-83
2021/08/29 12:06:28;;;;;;;8.83;6.00;;;17.20;97.30;;;;;;4996877;28;20261;-83
2021/08/29 12:09:08;;;;;;;9.93;6.13;;;17.40;97.30;;;;;;4996983;28;20416;-83
2021/08/29 12:11:38;;;;;;;10.37;6.20;;;17.50;97.30;;;;;;5013067;28;20485;-83
2021/08/29 12:14:19;;;;;;;7.13;5.13;;;17.80;97.30;;;;;;4984516;28;20425;-83
2021/08/29 12:16:51;;;;;;;4.90;3.67;;;17.90;97.30;;;;;;4987238;28;20452;-83
2021/08/29 12:19:26;;;;;;;6.73;4.23;;;17.80;97.30;;;;;;4995305;28;20778;-83
2021/08/29 12:21:53;;;;;;;4.53;3.60;;;17.70;97.30;;;;;;4997290;28;20522;-84
2021/08/29 12:24:30;;;;;;;4.90;3.80;;;17.70;97.30;;;;;;4972574;28;20417;-84
2021/08/29 12:27:18;;;;;;;4.70;3.60;;;17.70;97.30;;;;;;4980000;28;20528;-82
2021/08/29 12:29:51;;;;;;;5.40;4.20;;;17.80;97.30;;;;;;4979088;28;20424;-83
2021/08/29 12:32:25;;;;;;;5.00;4.10;;;18.00;97.30;;;;;;4979044;28;20503;-83
2021/08/29 12:34:56;;;;;;;6.20;4.40;;;18.10;97.30;;;;;;4979619;28;20433;-83
2021/08/29 12:37:22;;;;;;;4.53;3.90;;;18.40;97.30;;;;;;4979309;28;20449;-84
2021/08/29 12:40:02;;;;;;;4.70;3.40;;;18.50;97.30;;;;;;4979294;28;20431;-83